createdAt,value
2018-12-12T00:01:40.688Z,2.62
2018-12-12T00:04:11.309Z,2.07
2018-12-12T00:06:41.846Z,1.57
2018-12-12T00:09:10.245Z,2.65
2018-12-12T00:11:39.985Z,1.62
2018-12-12T00:14:08.479Z,2.47
2018-12-12T00:16:36.847Z,2.40
2018-12-12T00:19:05.537Z,1.65
2018-12-12T00:24:15.800Z,2.17
2018-12-12T00:26:44.155Z,1.65
2018-12-12T00:29:12.520Z,2.47
2018-12-12T00:31:41.209Z,3.12
2018-12-12T00:36:51.320Z,1.52
2018-12-12T00:39:19.719Z,2.17
2018-12-12T00:41:48.151Z,1.98
2018-12-12T00:44:16.563Z,1.60
2018-12-12T00:46:45.337Z,1.42
2018-12-12T00:49:14.024Z,1.98
2018-12-12T00:51:42.600Z,1.42
2018-12-12T00:56:52.866Z,1.45
2018-12-12T00:59:21.259Z,2.37
2018-12-12T01:01:49.561Z,1.72
2018-12-12T01:04:18.251Z,1.70
2018-12-12T01:06:46.713Z,2.08
2018-12-12T01:12:03.113Z,1.40
2018-12-12T01:17:13.323Z,2.72
2018-12-12T01:19:41.672Z,2.00
2018-12-12T01:24:51.800Z,1.95
2018-12-12T01:27:20.215Z,2.05
2018-12-12T01:29:48.693Z,1.80
2018-12-12T01:32:17.171Z,1.65
2018-12-12T01:34:45.524Z,1.35
2018-12-12T01:39:56.254Z,1.62
2018-12-12T01:45:06.559Z,1.67
2018-12-12T01:47:34.905Z,2.05
2018-12-12T01:50:04.241Z,1.35
2018-12-12T01:55:14.620Z,1.30
2018-12-12T01:57:42.945Z,1.52
2018-12-12T02:00:11.291Z,2.00
2018-12-12T02:02:39.796Z,1.52
2018-12-12T02:05:09.533Z,1.30
2018-12-12T02:07:38.101Z,1.72
2018-12-12T02:10:07.421Z,1.60
2018-12-12T02:15:18.274Z,1.45
2018-12-12T02:17:46.695Z,1.55
2018-12-12T02:20:15.035Z,1.50
2018-12-12T02:25:25.190Z,1.60
2018-12-12T02:27:53.723Z,3.08
2018-12-12T02:30:22.081Z,1.40
2018-12-12T02:32:50.488Z,1.40
2018-12-12T02:38:01.459Z,1.37
2018-12-12T02:40:30.238Z,1.52
2018-12-12T02:42:58.735Z,1.50
2018-12-12T02:45:27.038Z,1.42
2018-12-12T02:47:55.629Z,1.60
2018-12-12T02:50:24.084Z,1.80
2018-12-12T02:52:52.406Z,1.35
2018-12-12T02:55:20.801Z,3.35
2018-12-12T02:57:49.117Z,1.85
2018-12-12T03:00:17.496Z,1.70
2018-12-12T03:02:45.826Z,1.52
2018-12-12T03:05:14.153Z,1.37
2018-12-12T03:07:45.961Z,2.30
2018-12-12T03:10:14.341Z,1.52
2018-12-12T03:12:42.822Z,1.37
2018-12-12T03:15:11.254Z,1.37
2018-12-12T03:17:39.632Z,2.40
2018-12-12T03:20:08.171Z,1.55
2018-12-12T03:22:36.639Z,1.40
2018-12-12T03:25:05.376Z,1.12
2018-12-12T03:27:33.674Z,1.30
2018-12-12T03:30:02.669Z,1.50
2018-12-12T03:32:31.218Z,1.42
2018-12-12T03:34:59.664Z,1.17
2018-12-12T03:37:27.948Z,1.32
2018-12-12T03:39:56.781Z,1.43
2018-12-12T03:42:25.764Z,1.45
2018-12-12T03:44:54.115Z,1.25
2018-12-12T03:47:22.527Z,1.37
2018-12-12T03:49:50.819Z,1.30
2018-12-12T03:55:00.918Z,1.30
2018-12-12T03:57:29.295Z,1.50
2018-12-12T03:59:57.563Z,1.40
2018-12-12T04:02:25.830Z,1.37
2018-12-12T04:04:54.287Z,1.92
2018-12-12T04:10:06.837Z,1.50
2018-12-12T04:12:35.161Z,1.40
2018-12-12T04:15:03.856Z,1.42
2018-12-12T04:17:33.332Z,1.62
2018-12-12T04:22:43.353Z,1.27
2018-12-12T04:27:53.987Z,1.65
2018-12-12T04:30:22.332Z,1.55
2018-12-12T04:32:50.985Z,1.17
2018-12-12T04:38:01.537Z,1.25
2018-12-12T04:40:29.785Z,1.50
2018-12-12T04:45:40.397Z,1.02
2018-12-12T04:48:08.872Z,1.30
2018-12-12T04:50:37.248Z,1.22
2018-12-12T04:53:05.670Z,1.02
2018-12-12T04:58:15.965Z,1.45
2018-12-12T05:00:44.627Z,1.07
2018-12-12T05:05:54.802Z,1.30
2018-12-12T05:08:23.193Z,1.20
2018-12-12T05:10:51.674Z,1.25
2018-12-12T05:13:20.199Z,1.15
2018-12-12T05:18:30.653Z,1.20
2018-12-12T05:20:59.218Z,1.20
2018-12-12T05:26:10.534Z,1.67
2018-12-12T05:28:39.021Z,1.20
2018-12-12T05:31:07.557Z,1.27
2018-12-12T05:33:35.924Z,1.35
2018-12-12T05:38:46.522Z,1.30
2018-12-12T05:41:15.031Z,1.10
2018-12-12T05:43:43.381Z,1.22
2018-12-12T05:46:12.929Z,1.70
2018-12-12T05:48:41.360Z,1.02
2018-12-12T05:51:09.729Z,1.20
2018-12-12T05:53:38.171Z,1.02
2018-12-12T05:56:06.503Z,1.47
2018-12-12T05:58:34.817Z,1.30
2018-12-12T06:01:03.536Z,1.00
2018-12-12T06:03:31.855Z,1.52
2018-12-12T06:06:00.151Z,1.50
2018-12-12T06:08:28.679Z,1.85
2018-12-12T06:13:38.850Z,1.30
2018-12-12T06:16:07.605Z,1.20
2018-12-12T06:18:35.866Z,1.37
2018-12-12T06:21:05.445Z,0.97
2018-12-12T06:23:33.871Z,1.27
2018-12-12T06:26:02.158Z,1.35
2018-12-12T06:31:12.250Z,1.37
2018-12-12T06:33:40.584Z,1.17
2018-12-12T06:36:08.953Z,1.30
2018-12-12T06:38:37.280Z,1.02
2018-12-12T06:41:05.592Z,1.45
2018-12-12T06:46:15.851Z,1.00
2018-12-12T06:48:44.172Z,1.50
2018-12-12T06:51:12.504Z,2.58
2018-12-12T06:53:40.774Z,1.20
2018-12-12T06:56:09.344Z,1.20
2018-12-12T06:58:37.675Z,1.77
2018-12-12T07:01:06.265Z,1.45
2018-12-12T07:06:16.728Z,1.55
2018-12-12T07:08:45.044Z,1.45
2018-12-12T07:11:13.404Z,1.80
2018-12-12T07:13:41.747Z,1.98
2018-12-12T07:18:52.437Z,2.25
2018-12-12T07:21:26.254Z,2.33
2018-12-12T07:26:36.329Z,2.65
2018-12-12T07:29:04.913Z,3.05
2018-12-12T07:31:33.303Z,3.10
2018-12-12T07:34:02.006Z,3.52
2018-12-12T07:39:17.747Z,1.87
2018-12-12T07:41:42.791Z,1.80
2018-12-12T07:46:55.053Z,2.25
2018-12-12T07:49:25.739Z,1.77
2018-12-12T07:54:55.898Z,1.47
2018-12-12T07:57:24.156Z,2.25
2018-12-12T07:59:52.471Z,1.20
2018-12-12T08:02:22.140Z,1.30
2018-12-12T08:04:50.462Z,1.57
2018-12-12T08:10:00.881Z,1.50
2018-12-12T08:12:29.245Z,1.70
2018-12-12T08:17:39.292Z,1.47
2018-12-12T08:20:07.771Z,1.98
2018-12-12T08:22:36.117Z,1.45
2018-12-12T08:25:05.051Z,1.40
2018-12-12T08:27:33.365Z,3.27
2018-12-12T08:30:02.041Z,1.67
2018-12-12T08:32:30.379Z,1.30
2018-12-12T08:34:58.782Z,1.77
2018-12-12T08:37:27.148Z,1.70
2018-12-12T08:39:56.005Z,1.67
2018-12-12T08:42:24.298Z,1.95
2018-12-12T08:44:52.631Z,1.72
2018-12-12T08:47:21.058Z,1.47
2018-12-12T08:49:49.403Z,1.27
2018-12-12T08:52:17.738Z,1.47
2018-12-12T08:54:46.091Z,1.22
2018-12-12T08:57:15.073Z,1.60
2018-12-12T08:59:43.597Z,1.55
2018-12-12T09:02:11.932Z,2.20
2018-12-12T09:04:40.301Z,1.45
2018-12-12T09:07:08.723Z,2.67
2018-12-12T09:09:37.135Z,1.60
2018-12-12T09:12:05.565Z,1.55
2018-12-12T09:14:33.992Z,1.70
2018-12-12T09:17:09.489Z,1.92
2018-12-12T09:22:19.175Z,2.72
2018-12-12T09:24:48.077Z,2.10
2018-12-12T09:29:58.159Z,2.17
2018-12-12T09:35:10.806Z,1.70
2018-12-12T09:37:39.187Z,2.00
2018-12-12T09:40:07.520Z,2.60
2018-12-12T09:42:35.797Z,2.33
2018-12-12T09:45:04.973Z,2.23
2018-12-12T09:50:15.837Z,2.30
2018-12-12T09:52:46.223Z,3.90
2018-12-12T09:57:58.456Z,2.67
2018-12-12T10:00:26.769Z,2.80
2018-12-12T10:05:33.844Z,4.10
2018-12-12T10:08:02.186Z,3.70
2018-12-12T10:10:30.456Z,3.10
2018-12-12T10:12:58.843Z,2.63
2018-12-12T10:15:27.279Z,4.40
2018-12-12T10:17:55.613Z,3.13
2018-12-12T10:20:23.943Z,3.63
2018-12-12T10:22:52.383Z,2.77
2018-12-12T10:25:20.942Z,3.27
2018-12-12T10:30:31.127Z,4.00
2018-12-12T10:32:59.452Z,3.07
2018-12-12T10:35:27.789Z,4.87
2018-12-12T10:37:56.245Z,3.73
2018-12-12T10:40:24.582Z,2.93
2018-12-12T10:45:35.366Z,8.30
2018-12-12T10:48:03.830Z,4.10
2018-12-12T10:50:32.189Z,4.03
2018-12-12T10:53:00.578Z,3.40
2018-12-12T10:55:28.930Z,4.07
2018-12-12T10:57:57.269Z,5.73
2018-12-12T11:00:25.763Z,3.73
2018-12-12T11:05:47.483Z,5.70
2018-12-12T11:08:17.220Z,3.17
2018-12-12T11:10:45.557Z,3.77
2018-12-12T11:13:13.896Z,4.67
2018-12-12T11:15:42.243Z,4.93
2018-12-12T11:18:10.567Z,3.60
2018-12-12T11:23:20.718Z,2.93
2018-12-12T11:25:49.081Z,4.23
2018-12-12T11:28:17.585Z,4.33
2018-12-12T11:30:46.023Z,4.13
2018-12-12T11:33:14.305Z,4.23
2018-12-12T11:35:42.705Z,4.73
2018-12-12T11:38:11.034Z,4.77
2018-12-12T11:40:39.423Z,5.33
2018-12-12T11:45:49.817Z,5.03
2018-12-12T11:48:18.274Z,5.77
2018-12-12T11:50:46.647Z,4.77
2018-12-12T11:53:14.959Z,4.87
2018-12-12T11:55:43.342Z,4.17
2018-12-12T11:58:11.982Z,6.10
2018-12-12T12:00:40.279Z,5.30
2018-12-12T12:05:52.334Z,5.63
2018-12-12T12:08:20.687Z,6.27
2018-12-12T12:10:49.048Z,6.07
2018-12-12T12:13:19.436Z,6.23
2018-12-12T12:18:29.856Z,6.03
2018-12-12T12:20:58.192Z,5.53
2018-12-12T12:26:09.872Z,6.37
2018-12-12T12:28:38.269Z,5.80
2018-12-12T12:31:06.609Z,6.33
2018-12-12T12:33:34.928Z,6.37
2018-12-12T12:38:45.292Z,5.57
2018-12-12T12:41:14.725Z,5.13
2018-12-12T12:43:43.140Z,7.57
2018-12-12T12:46:11.951Z,4.97
2018-12-12T12:48:40.352Z,5.47
2018-12-12T12:51:09.179Z,5.00
2018-12-12T12:53:37.507Z,5.07
2018-12-12T12:56:06.852Z,5.70
2018-12-12T12:58:35.285Z,6.10
2018-12-12T13:01:03.998Z,6.27
2018-12-12T13:03:33.795Z,7.00
2018-12-12T13:06:02.662Z,6.20
2018-12-12T13:08:31.165Z,5.90
2018-12-12T13:10:59.763Z,5.83
2018-12-12T13:13:28.164Z,4.40
2018-12-12T13:15:57.269Z,6.60
2018-12-12T13:18:25.862Z,5.57
2018-12-12T13:20:54.621Z,4.93
2018-12-12T13:23:23.128Z,6.93
2018-12-12T13:25:51.515Z,7.13
2018-12-12T13:28:23.185Z,6.03
2018-12-12T13:30:52.642Z,5.30
2018-12-12T13:33:21.008Z,4.87
2018-12-12T13:35:49.343Z,6.67
2018-12-12T13:38:17.731Z,6.07
2018-12-12T13:40:46.138Z,7.57
2018-12-12T13:45:56.158Z,4.83
2018-12-12T13:48:24.478Z,5.37
2018-12-12T13:50:52.848Z,6.70
2018-12-12T13:53:21.564Z,5.90
2018-12-12T13:55:49.892Z,6.97
2018-12-12T13:58:18.194Z,8.57
2018-12-12T14:00:46.542Z,6.90
2018-12-12T14:05:56.676Z,5.23
2018-12-12T14:08:25.305Z,7.20
2018-12-12T14:10:53.910Z,5.40
2018-12-12T14:13:22.180Z,6.10
2018-12-12T14:18:32.707Z,6.80
2018-12-12T14:21:01.596Z,6.43
2018-12-12T14:23:29.955Z,6.27
2018-12-12T14:25:58.845Z,6.57
2018-12-12T14:31:08.972Z,6.87
2018-12-12T14:33:37.303Z,7.83
2018-12-12T14:38:47.827Z,6.77
2018-12-12T14:41:16.178Z,7.47
2018-12-12T14:46:27.991Z,6.43
2018-12-12T14:48:56.760Z,6.53
2018-12-12T14:51:25.149Z,5.87
2018-12-12T14:53:53.446Z,6.33
2018-12-12T14:59:03.896Z,5.67
2018-12-12T15:01:32.237Z,7.50
2018-12-12T15:06:42.332Z,6.33
2018-12-12T15:09:10.613Z,7.03
2018-12-12T15:11:39.130Z,5.87
2018-12-12T15:14:07.475Z,6.77
2018-12-12T15:16:35.926Z,6.73
2018-12-12T15:19:04.500Z,6.73
2018-12-12T15:21:33.056Z,7.00
2018-12-12T15:24:01.454Z,7.33
2018-12-12T15:26:29.877Z,7.07
2018-12-12T15:31:39.900Z,6.33
2018-12-12T15:34:08.148Z,6.53
2018-12-12T15:39:18.178Z,6.53
2018-12-12T15:41:46.457Z,6.83
2018-12-12T15:46:56.877Z,8.17
2018-12-12T15:49:25.315Z,10.50
2018-12-12T15:51:53.769Z,10.03
2018-12-12T15:55:22.708Z,8.60
2018-12-12T16:01:38.412Z,5.33
2018-12-12T16:06:48.575Z,7.30
2018-12-12T16:09:17.324Z,9.50
2018-12-12T16:11:45.662Z,9.43
2018-12-12T16:16:58.684Z,7.13
2018-12-12T16:19:27.064Z,7.70
2018-12-12T16:21:55.524Z,6.87
2018-12-12T16:24:23.842Z,6.43
2018-12-12T16:26:53.188Z,6.97
2018-12-12T16:29:21.599Z,6.83
2018-12-12T16:31:49.903Z,8.93
2018-12-12T16:34:18.183Z,7.43
2018-12-12T16:36:46.472Z,7.40
2018-12-12T16:39:15.019Z,7.37
2018-12-12T16:41:43.339Z,8.77
2018-12-12T16:44:11.618Z,7.40
2018-12-12T16:46:46.383Z,5.83
2018-12-12T16:49:14.781Z,7.13
2018-12-12T16:51:43.155Z,6.97
2018-12-12T16:54:11.650Z,7.13
2018-12-12T16:56:40.112Z,6.40
2018-12-12T16:59:08.518Z,5.83
2018-12-12T17:01:36.836Z,5.67
2018-12-12T17:04:05.159Z,8.53
2018-12-12T17:09:15.335Z,6.37
2018-12-12T17:11:43.647Z,6.47
2018-12-12T17:14:11.925Z,7.37
2018-12-12T17:16:40.324Z,5.93
2018-12-12T17:19:08.624Z,8.00
2018-12-12T17:24:18.965Z,8.03
2018-12-12T17:29:29.384Z,8.07
2018-12-12T17:31:57.625Z,7.23
2018-12-12T17:34:25.961Z,7.20
2018-12-12T17:39:35.756Z,7.37
2018-12-12T17:42:04.079Z,7.93
2018-12-12T17:44:32.335Z,9.43
2018-12-12T17:49:42.607Z,9.50
2018-12-12T17:52:11.263Z,9.47
2018-12-12T17:57:21.572Z,10.75
2018-12-12T17:59:49.930Z,11.40
2018-12-12T18:02:19.611Z,7.70
2018-12-12T18:05:06.956Z,6.30
2018-12-12T18:07:35.531Z,6.35
2018-12-12T18:10:05.379Z,6.27
2018-12-12T18:12:33.781Z,4.78
2018-12-12T18:15:02.140Z,5.50
2018-12-12T18:17:32.506Z,5.50
2018-12-12T18:20:01.274Z,6.60
2018-12-12T18:25:11.977Z,5.10
2018-12-12T18:27:40.364Z,6.28
2018-12-12T18:30:09.052Z,5.78
2018-12-12T18:32:39.510Z,6.35
2018-12-12T18:35:14.011Z,6.58
2018-12-12T18:37:42.638Z,5.50
2018-12-12T18:40:11.091Z,6.08
2018-12-12T18:42:42.641Z,6.97
2018-12-12T18:45:11.077Z,7.03
2018-12-12T18:47:57.467Z,6.28
2018-12-12T18:50:28.354Z,4.50
2018-12-12T18:53:03.506Z,4.93
2018-12-12T18:55:32.347Z,4.35
2018-12-12T18:58:00.889Z,5.03
2018-12-12T19:00:29.240Z,4.53
2018-12-12T19:02:57.821Z,4.50
2018-12-12T19:05:28.412Z,5.03
2018-12-12T19:07:56.506Z,5.30
2018-12-12T19:10:25.291Z,4.40
2018-12-12T19:12:53.697Z,5.28
2018-12-12T19:15:22.059Z,6.00
2018-12-12T19:17:50.367Z,5.87
2018-12-12T19:20:19.051Z,5.47
2018-12-12T19:22:47.524Z,6.20
2018-12-12T19:25:15.891Z,6.55
2018-12-12T19:27:44.377Z,6.00
2018-12-12T19:30:12.683Z,5.25
2018-12-12T19:32:41.061Z,6.87
2018-12-12T19:35:10.189Z,5.13
2018-12-12T19:37:38.566Z,6.12
2018-12-12T19:40:08.359Z,6.35
2018-12-12T19:42:36.914Z,5.60
2018-12-12T19:45:06.519Z,4.78
2018-12-12T19:47:35.936Z,4.90
2018-12-12T19:52:47.985Z,4.22
2018-12-12T19:55:16.320Z,4.70
2018-12-12T19:57:44.784Z,4.12
2018-12-12T20:00:13.445Z,4.33
2018-12-12T20:02:41.982Z,4.45
2018-12-12T20:05:10.462Z,4.50
2018-12-12T20:07:38.949Z,5.12
2018-12-12T20:10:07.677Z,3.72
2018-12-12T20:15:23.515Z,4.25
2018-12-12T20:17:52.702Z,4.12
2018-12-12T20:20:22.247Z,5.37
2018-12-12T20:22:50.728Z,3.67
2018-12-12T20:25:19.642Z,3.92
2018-12-12T20:30:35.270Z,3.98
2018-12-12T20:33:00.235Z,4.08
2018-12-12T20:38:11.983Z,4.65
2018-12-12T20:40:40.515Z,4.65
2018-12-12T20:43:09.062Z,3.05
2018-12-12T20:45:37.450Z,4.30
2018-12-12T20:48:05.836Z,4.15
2018-12-12T20:50:34.237Z,3.42
2018-12-12T20:53:02.700Z,4.40
2018-12-12T20:55:31.130Z,4.00
2018-12-12T20:57:59.522Z,4.17
2018-12-12T21:00:27.837Z,5.70
2018-12-12T21:02:56.421Z,5.33
2018-12-12T21:05:24.879Z,5.22
2018-12-12T21:07:53.294Z,6.67
2018-12-12T21:10:21.689Z,7.25
2018-12-12T21:12:50.189Z,8.53
2018-12-12T21:15:18.524Z,9.43
2018-12-12T21:17:46.898Z,7.62
2018-12-12T21:20:15.282Z,5.42
2018-12-12T21:22:43.692Z,5.30
2018-12-12T21:25:12.271Z,3.65
2018-12-12T21:27:40.621Z,4.97
2018-12-12T21:30:09.046Z,4.08
2018-12-12T21:32:38.467Z,3.87
2018-12-12T21:35:07.619Z,2.90
2018-12-12T21:37:36.109Z,2.90
2018-12-12T21:40:04.946Z,3.02
2018-12-12T21:42:33.388Z,3.35
2018-12-12T21:45:01.940Z,3.42
2018-12-12T21:47:30.413Z,4.03
2018-12-12T21:49:58.716Z,2.90
2018-12-12T21:52:27.296Z,2.42
2018-12-12T21:54:55.629Z,4.42
2018-12-12T21:57:24.018Z,2.77
2018-12-12T22:02:34.259Z,2.95
2018-12-12T22:07:44.791Z,3.30
2018-12-12T22:10:13.249Z,4.30
2018-12-12T22:12:41.604Z,2.50
2018-12-12T22:15:10.042Z,2.62
2018-12-12T22:17:38.875Z,3.20
2018-12-12T22:22:49.409Z,3.05
2018-12-12T22:27:59.475Z,2.23
2018-12-12T22:30:27.893Z,3.40
2018-12-12T22:32:56.172Z,3.25
2018-12-12T22:35:24.655Z,2.60
2018-12-12T22:37:52.921Z,3.30
2018-12-12T22:40:21.262Z,3.08
2018-12-12T22:42:49.720Z,2.37
2018-12-12T22:45:18.039Z,2.75
2018-12-12T22:50:28.264Z,2.50
2018-12-12T22:52:56.600Z,3.47
2018-12-12T22:55:25.022Z,3.87
2018-12-12T22:57:53.527Z,2.17
2018-12-12T23:00:27.660Z,2.22
2018-12-12T23:02:58.063Z,2.52
2018-12-12T23:05:26.339Z,3.40
2018-12-12T23:10:36.380Z,3.08
2018-12-12T23:13:04.803Z,3.75
2018-12-12T23:18:14.972Z,4.37
2018-12-12T23:20:43.309Z,3.77
2018-12-12T23:23:11.609Z,4.80
2018-12-12T23:25:39.947Z,12.85
2018-12-12T23:28:08.246Z,3.17
2018-12-12T23:30:36.473Z,3.50
2018-12-12T23:33:05.805Z,3.47
2018-12-12T23:35:34.060Z,2.37
2018-12-12T23:38:02.470Z,2.95
2018-12-12T23:40:30.798Z,2.15
2018-12-12T23:42:59.233Z,2.00
2018-12-12T23:45:27.558Z,3.72
2018-12-12T23:47:55.917Z,2.27
2018-12-12T23:50:24.199Z,1.82
2018-12-12T23:52:52.479Z,2.95
2018-12-12T23:55:20.797Z,2.70
2018-12-12T23:57:49.106Z,3.37
